createdAt,value
2022-11-29T00:01:17.952Z,154.80
2022-11-29T00:03:45.050Z,88.38
2022-11-29T00:06:17.395Z,79.45
2022-11-29T00:08:45.015Z,81.60
2022-11-29T00:11:35.317Z,83.30
2022-11-29T00:14:02.325Z,68.85
2022-11-29T00:16:29.292Z,114.72
2022-11-29T00:18:56.112Z,76.93
2022-11-29T00:21:22.911Z,69.65
2022-11-29T00:23:49.777Z,117.67
2022-11-29T00:26:16.749Z,46.53
2022-11-29T00:28:43.586Z,114.13
2022-11-29T00:31:22.040Z,92.45
2022-11-29T00:33:49.369Z,49.05
2022-11-29T00:36:16.986Z,48.97
2022-11-29T00:38:44.160Z,87.78
2022-11-29T00:41:11.070Z,53.17
2022-11-29T00:43:38.398Z,63.33
2022-11-29T00:46:05.843Z,51.90
2022-11-29T00:48:32.757Z,62.00
2022-11-29T00:50:59.592Z,104.18
2022-11-29T00:53:26.384Z,93.85
2022-11-29T00:55:54.182Z,68.07
2022-11-29T00:58:21.534Z,69.80
2022-11-29T01:00:48.990Z,120.00
2022-11-29T01:03:17.004Z,79.65
2022-11-29T01:05:44.742Z,81.07
2022-11-29T01:08:12.668Z,96.63
2022-11-29T01:10:40.164Z,99.20
2022-11-29T01:13:07.896Z,86.10
2022-11-29T01:15:34.649Z,166.57
2022-11-29T01:18:01.561Z,83.88
2022-11-29T01:20:28.605Z,134.48
2022-11-29T01:22:55.443Z,96.38
2022-11-29T01:25:22.402Z,71.60
2022-11-29T01:27:49.223Z,135.77
2022-11-29T01:30:16.042Z,94.88
2022-11-29T01:32:42.904Z,95.95
2022-11-29T01:35:09.780Z,83.75
2022-11-29T01:37:36.673Z,108.87
2022-11-29T01:40:04.004Z,143.68
2022-11-29T01:42:30.881Z,202.50
2022-11-29T01:45:12.723Z,179.07
2022-11-29T01:47:44.695Z,111.88
2022-11-29T01:50:11.768Z,142.97
2022-11-29T01:52:39.114Z,101.82
2022-11-29T01:55:07.553Z,94.53
2022-11-29T01:57:36.601Z,55.40
2022-11-29T02:00:14.559Z,82.68
2022-11-29T02:02:56.292Z,67.90
2022-11-29T02:05:24.596Z,54.35
2022-11-29T02:07:54.332Z,70.43
2022-11-29T02:10:32.894Z,88.80
2022-11-29T02:13:32.552Z,84.60
2022-11-29T02:16:13.064Z,82.17
2022-11-29T02:18:52.299Z,95.20
2022-11-29T02:21:28.134Z,76.57
2022-11-29T02:24:08.954Z,61.67
2022-11-29T02:26:53.774Z,62.03
2022-11-29T02:29:23.270Z,81.87
2022-11-29T02:32:17.813Z,118.68
2022-11-29T02:34:54.261Z,89.03
2022-11-29T02:37:24.088Z,160.13
2022-11-29T02:40:18.164Z,71.72
2022-11-29T02:43:08.062Z,132.97
2022-11-29T02:45:43.744Z,112.68
2022-11-29T02:48:29.374Z,118.82
2022-11-29T02:51:08.346Z,117.30
2022-11-29T02:53:43.994Z,97.43
2022-11-29T02:56:22.646Z,94.80
2022-11-29T02:59:15.663Z,105.47
2022-11-29T03:02:02.494Z,132.60
2022-11-29T03:04:48.049Z,123.95
2022-11-29T03:07:35.754Z,277.33
2022-11-29T03:10:29.046Z,177.50
2022-11-29T03:12:56.528Z,128.02
2022-11-29T03:15:34.324Z,196.13
2022-11-29T03:18:20.479Z,140.32
2022-11-29T03:21:18.460Z,150.50
2022-11-29T03:23:50.141Z,110.20
2022-11-29T03:26:41.811Z,190.88
2022-11-29T03:29:27.414Z,231.73
2022-11-29T03:32:17.680Z,235.65
2022-11-29T03:34:56.960Z,204.23
2022-11-29T03:37:38.676Z,128.73
2022-11-29T03:40:10.473Z,177.30
2022-11-29T03:42:48.930Z,132.15
2022-11-29T03:45:40.596Z,197.13
2022-11-29T03:48:30.289Z,145.25
2022-11-29T03:51:03.620Z,71.67
2022-11-29T03:53:48.001Z,149.70
2022-11-29T03:56:41.475Z,186.15
2022-11-29T03:59:33.971Z,136.50
2022-11-29T04:02:03.911Z,138.05
2022-11-29T04:04:33.524Z,98.57
2022-11-29T04:07:35.721Z,154.35
2022-11-29T04:10:36.369Z,130.23
2022-11-29T04:13:23.132Z,155.68
2022-11-29T04:16:21.012Z,163.45
2022-11-29T04:19:18.313Z,247.73
2022-11-29T04:22:12.929Z,221.93
2022-11-29T04:25:09.313Z,224.10
2022-11-29T04:28:13.729Z,306.15
2022-11-29T04:31:08.279Z,207.85
2022-11-29T04:33:56.469Z,240.93
2022-11-29T04:36:47.730Z,268.10
2022-11-29T04:39:31.618Z,194.38
2022-11-29T04:42:24.748Z,182.77
2022-11-29T04:45:09.058Z,227.15
2022-11-29T04:48:06.745Z,240.20
2022-11-29T04:50:57.466Z,154.07
2022-11-29T04:53:47.846Z,181.88
2022-11-29T04:56:28.661Z,151.88
2022-11-29T04:59:02.890Z,191.05
2022-11-29T05:01:38.973Z,245.63
2022-11-29T05:04:27.883Z,224.00
2022-11-29T05:07:19.227Z,138.70
2022-11-29T05:10:30.609Z,157.07
2022-11-29T05:13:11.622Z,173.18
2022-11-29T05:15:58.649Z,156.13
2022-11-29T05:18:53.677Z,173.82
2022-11-29T05:21:50.843Z,154.70
2022-11-29T05:24:45.666Z,92.78
2022-11-29T05:27:32.260Z,228.45
2022-11-29T05:30:22.874Z,158.43
2022-11-29T05:33:11.587Z,202.75
2022-11-29T05:36:06.716Z,200.77
2022-11-29T05:38:54.729Z,233.27
2022-11-29T05:41:35.508Z,189.13
2022-11-29T05:44:25.854Z,111.03
2022-11-29T05:47:02.096Z,122.10
2022-11-29T05:49:57.239Z,142.13
2022-11-29T05:52:56.468Z,142.90
2022-11-29T05:55:34.761Z,106.80
2022-11-29T05:58:17.563Z,91.60
2022-11-29T06:00:59.636Z,78.93
2022-11-29T06:03:40.609Z,129.82
2022-11-29T06:06:16.833Z,150.52
2022-11-29T06:09:04.061Z,117.07
2022-11-29T06:11:46.407Z,137.43
2022-11-29T06:14:44.461Z,137.70
2022-11-29T06:17:41.582Z,236.68
2022-11-29T06:20:36.153Z,196.50
2022-11-29T06:23:13.726Z,92.90
2022-11-29T06:26:04.040Z,203.90
2022-11-29T06:28:49.601Z,122.40
2022-11-29T06:31:34.820Z,139.52
2022-11-29T06:34:20.348Z,196.55
2022-11-29T06:37:11.926Z,137.35
2022-11-29T06:39:38.903Z,141.63
2022-11-29T06:42:05.672Z,176.43
2022-11-29T06:44:32.740Z,224.57
2022-11-29T06:47:09.328Z,146.68
2022-11-29T06:50:03.033Z,215.25
2022-11-29T06:53:16.762Z,203.50
2022-11-29T06:56:08.294Z,196.32
2022-11-29T06:58:44.703Z,127.30
2022-11-29T07:01:32.754Z,161.43
2022-11-29T07:04:07.357Z,132.88
2022-11-29T07:06:35.649Z,133.90
2022-11-29T07:09:10.669Z,150.15
2022-11-29T07:11:38.041Z,94.30
2022-11-29T07:14:05.211Z,152.18
2022-11-29T07:16:47.136Z,108.97
2022-11-29T07:19:25.895Z,106.87
2022-11-29T07:22:15.488Z,129.05
2022-11-29T07:25:03.601Z,100.18
2022-11-29T07:27:47.304Z,79.95
2022-11-29T07:30:20.860Z,103.22
2022-11-29T07:33:26.964Z,86.53
2022-11-29T07:36:18.613Z,139.68
2022-11-29T07:38:55.567Z,90.85
2022-11-29T07:41:45.805Z,135.10
2022-11-29T07:44:30.429Z,100.28
2022-11-29T07:46:57.227Z,93.13
2022-11-29T07:49:24.074Z,91.10
2022-11-29T07:51:51.006Z,110.03
2022-11-29T07:54:19.765Z,104.35
2022-11-29T07:56:46.717Z,74.53
2022-11-29T07:59:14.544Z,97.47
2022-11-29T08:01:41.806Z,74.30
2022-11-29T08:04:09.017Z,80.53
2022-11-29T08:06:36.750Z,62.88
2022-11-29T08:09:04.616Z,91.22
2022-11-29T08:11:31.402Z,64.23
2022-11-29T08:14:03.450Z,62.83
2022-11-29T08:16:30.383Z,51.00
2022-11-29T08:18:57.166Z,72.88
2022-11-29T08:21:23.993Z,120.53
2022-11-29T08:23:51.486Z,116.97
2022-11-29T08:26:19.528Z,102.00
2022-11-29T08:28:51.820Z,102.00
2022-11-29T08:31:19.947Z,123.32
2022-11-29T08:33:46.996Z,82.35
2022-11-29T08:36:16.942Z,64.00
2022-11-29T08:38:44.022Z,70.22
2022-11-29T08:41:13.115Z,65.07
2022-11-29T08:43:40.284Z,67.15
2022-11-29T08:46:07.387Z,78.05
2022-11-29T08:48:35.540Z,97.23
2022-11-29T08:51:02.763Z,55.33
2022-11-29T08:53:41.680Z,95.97
2022-11-29T08:56:53.398Z,60.65
2022-11-29T08:59:00.522Z,61.03
2022-11-29T09:01:29.107Z,102.00
2022-11-29T09:03:59.661Z,120.10
2022-11-29T09:06:28.986Z,75.25
2022-11-29T09:08:56.855Z,65.30
2022-11-29T09:11:26.352Z,65.78
2022-11-29T09:13:56.060Z,57.87
2022-11-29T09:16:25.705Z,66.18
2022-11-29T09:18:55.744Z,84.35
2022-11-29T09:21:25.045Z,64.20
2022-11-29T09:23:58.765Z,39.58
2022-11-29T09:26:32.012Z,45.87
2022-11-29T09:29:03.917Z,61.38
2022-11-29T09:31:33.442Z,46.28
2022-11-29T09:34:00.421Z,45.22
2022-11-29T09:36:29.475Z,39.80
2022-11-29T09:38:57.453Z,31.10
2022-11-29T09:42:22.104Z,40.05
2022-11-29T09:45:01.384Z,29.20
2022-11-29T09:47:37.420Z,39.58
2022-11-29T09:50:33.670Z,26.92
2022-11-29T09:53:38.153Z,23.23
2022-11-29T09:56:33.702Z,30.00
2022-11-29T09:59:09.756Z,34.28
2022-11-29T10:01:45.058Z,37.38
2022-11-29T10:04:19.202Z,51.38
2022-11-29T10:06:56.964Z,43.03
2022-11-29T10:09:37.091Z,33.53
2022-11-29T10:12:18.989Z,36.83
2022-11-29T10:14:49.335Z,42.67
2022-11-29T10:17:53.897Z,28.38
2022-11-29T10:20:24.446Z,55.80
2022-11-29T10:23:00.143Z,36.03
2022-11-29T10:25:48.726Z,30.10
2022-11-29T10:28:30.614Z,38.80
2022-11-29T10:31:06.039Z,25.52
2022-11-29T10:33:37.122Z,41.73
2022-11-29T10:36:21.602Z,31.52
2022-11-29T10:38:50.310Z,24.17
2022-11-29T10:41:22.189Z,36.30
2022-11-29T10:43:51.305Z,30.38
2022-11-29T10:46:36.080Z,45.37
2022-11-29T10:49:10.360Z,53.60
2022-11-29T10:51:37.269Z,40.03
2022-11-29T10:54:43.938Z,23.60
2022-11-29T10:57:17.725Z,63.40
2022-11-29T10:59:58.557Z,54.20
2022-11-29T11:02:25.669Z,34.05
2022-11-29T11:04:52.713Z,33.15
2022-11-29T11:07:29.519Z,28.20
2022-11-29T11:09:57.975Z,27.00
2022-11-29T11:12:30.963Z,47.30
2022-11-29T11:15:25.891Z,27.50
2022-11-29T11:18:03.812Z,21.83
2022-11-29T11:20:37.771Z,18.02
2022-11-29T11:23:22.679Z,24.42
2022-11-29T11:25:57.186Z,22.50
2022-11-29T11:28:35.608Z,24.23
2022-11-29T11:31:08.284Z,23.17
2022-11-29T11:33:41.124Z,24.92
2022-11-29T11:36:13.045Z,24.92
2022-11-29T11:38:49.577Z,21.63
2022-11-29T11:41:51.915Z,25.95
2022-11-29T11:44:46.458Z,34.33
2022-11-29T11:47:18.615Z,23.30
2022-11-29T11:49:50.364Z,27.52
2022-11-29T11:52:22.737Z,22.73
2022-11-29T11:54:57.406Z,26.35
2022-11-29T11:57:26.055Z,23.83
2022-11-29T11:59:56.055Z,24.20
2022-11-29T12:02:37.205Z,23.98
2022-11-29T12:05:10.384Z,27.30
2022-11-29T12:08:07.701Z,32.03
2022-11-29T12:10:37.717Z,26.40
2022-11-29T12:13:05.235Z,24.77
2022-11-29T12:15:38.241Z,26.63
2022-11-29T12:18:28.256Z,31.33
2022-11-29T12:21:07.584Z,26.25
2022-11-29T12:23:55.314Z,24.50
2022-11-29T12:26:55.236Z,25.38
2022-11-29T12:29:19.123Z,26.40
2022-11-29T12:32:25.341Z,35.37
2022-11-29T12:35:26.205Z,24.30
2022-11-29T12:38:26.666Z,25.52
2022-11-29T12:41:05.792Z,21.40
2022-11-29T12:43:47.683Z,24.38
2022-11-29T12:46:20.579Z,18.60
2022-11-29T12:48:50.173Z,21.15
2022-11-29T12:51:39.947Z,23.92
2022-11-29T12:54:33.314Z,24.92
2022-11-29T12:57:12.134Z,24.08
2022-11-29T13:00:01.096Z,24.73
2022-11-29T13:02:58.748Z,22.65
2022-11-29T13:05:32.078Z,24.92
2022-11-29T13:08:27.030Z,22.35
2022-11-29T13:11:34.693Z,23.67
2022-11-29T13:14:41.600Z,25.20
2022-11-29T13:17:03.686Z,25.58
2022-11-29T13:19:56.697Z,26.05
2022-11-29T13:22:43.735Z,24.90
2022-11-29T13:25:29.184Z,25.23
2022-11-29T13:28:03.298Z,26.07
2022-11-29T13:30:30.432Z,24.17
2022-11-29T13:33:03.460Z,22.98
2022-11-29T13:35:47.119Z,24.67
2022-11-29T13:38:22.836Z,28.73
2022-11-29T13:41:21.587Z,24.03
2022-11-29T13:44:20.140Z,21.60
2022-11-29T13:47:02.855Z,22.05
2022-11-29T13:49:59.863Z,26.02
2022-11-29T13:52:33.818Z,24.60
2022-11-29T13:55:31.216Z,25.70
2022-11-29T13:58:19.652Z,25.17
2022-11-29T14:00:46.488Z,22.30
2022-11-29T14:03:29.064Z,25.27
2022-11-29T14:06:01.920Z,24.92
2022-11-29T14:09:17.426Z,27.17
2022-11-29T14:11:43.020Z,21.60
2022-11-29T14:14:15.798Z,25.40
2022-11-29T14:16:42.486Z,27.45
2022-11-29T14:19:09.212Z,31.02
2022-11-29T14:22:05.491Z,25.97
2022-11-29T14:24:32.237Z,22.55
2022-11-29T14:27:08.062Z,23.23
2022-11-29T14:29:50.023Z,28.17
2022-11-29T14:32:42.793Z,25.35
2022-11-29T14:35:12.697Z,25.10
2022-11-29T14:37:58.796Z,26.23
2022-11-29T14:40:28.804Z,26.27
2022-11-29T14:42:55.906Z,26.33
2022-11-29T14:45:24.836Z,22.52
2022-11-29T14:47:51.791Z,27.07
2022-11-29T14:50:33.992Z,28.98
2022-11-29T14:53:01.394Z,27.38
2022-11-29T14:55:31.935Z,28.38
2022-11-29T14:58:02.173Z,29.98
2022-11-29T15:00:36.496Z,27.67
2022-11-29T15:03:12.977Z,30.80
2022-11-29T15:06:11.433Z,25.77
2022-11-29T15:08:55.806Z,29.98
2022-11-29T15:11:52.752Z,28.20
2022-11-29T15:14:42.371Z,28.57
2022-11-29T15:17:46.983Z,28.58
2022-11-29T15:20:37.588Z,30.50
2022-11-29T15:23:09.222Z,30.13
2022-11-29T15:25:36.633Z,30.20
2022-11-29T15:28:05.918Z,34.07
2022-11-29T15:30:39.079Z,33.88
2022-11-29T15:33:08.889Z,31.65
2022-11-29T15:35:36.662Z,33.10
2022-11-29T15:38:03.510Z,34.22
2022-11-29T15:40:35.584Z,33.03
2022-11-29T15:43:40.086Z,35.55
2022-11-29T15:46:19.242Z,30.80
2022-11-29T15:48:46.025Z,34.13
2022-11-29T15:51:30.946Z,33.05
2022-11-29T15:54:12.151Z,34.57
2022-11-29T15:56:52.939Z,30.08
2022-11-29T15:59:42.488Z,37.60
2022-11-29T16:02:29.616Z,34.80
2022-11-29T16:05:00.193Z,35.33
2022-11-29T16:07:32.175Z,39.80
2022-11-29T16:10:10.529Z,37.47
2022-11-29T16:13:04.945Z,39.08
2022-11-29T16:15:39.250Z,40.13
2022-11-29T16:18:13.655Z,62.67
2022-11-29T16:20:40.870Z,54.77
2022-11-29T16:23:15.154Z,136.35
2022-11-29T16:26:04.372Z,74.22
2022-11-29T16:28:41.726Z,146.55
2022-11-29T16:31:11.406Z,213.40
2022-11-29T16:33:42.159Z,176.23
2022-11-29T16:36:23.869Z,144.63
2022-11-29T16:38:55.102Z,108.35
2022-11-29T16:41:29.895Z,160.07
2022-11-29T16:43:57.991Z,174.05
2022-11-29T16:46:27.837Z,143.37
2022-11-29T16:49:22.615Z,132.23
2022-11-29T16:51:51.218Z,110.47
2022-11-29T16:54:24.308Z,203.05
2022-11-29T16:56:52.765Z,172.27
2022-11-29T16:59:26.851Z,164.20
2022-11-29T17:01:56.071Z,214.95
2022-11-29T17:04:24.656Z,114.45
2022-11-29T17:06:54.103Z,112.07
2022-11-29T17:09:32.565Z,182.00
2022-11-29T17:12:04.483Z,69.83
2022-11-29T17:14:37.438Z,108.13
2022-11-29T17:17:06.084Z,115.40
2022-11-29T17:19:32.900Z,91.18
2022-11-29T17:21:59.697Z,77.88
2022-11-29T17:24:26.668Z,109.50
2022-11-29T17:26:53.494Z,98.60
2022-11-29T17:29:20.349Z,72.97
2022-11-29T17:31:50.315Z,64.22
2022-11-29T17:34:17.625Z,88.20
2022-11-29T17:36:45.185Z,79.27
2022-11-29T17:39:11.996Z,84.40
2022-11-29T17:41:38.775Z,75.22
2022-11-29T17:44:05.556Z,72.13
2022-11-29T17:46:34.942Z,79.20
2022-11-29T17:49:04.097Z,139.47
2022-11-29T17:54:17.969Z,126.63
2022-11-29T17:56:44.848Z,150.52
2022-11-29T17:59:11.803Z,97.65
2022-11-29T18:01:38.812Z,83.20
2022-11-29T18:04:06.769Z,75.78
2022-11-29T18:06:39.519Z,43.63
2022-11-29T18:09:08.407Z,70.25
2022-11-29T18:11:47.590Z,70.15
2022-11-29T18:14:21.297Z,44.60
2022-11-29T18:16:48.316Z,46.15
2022-11-29T18:19:18.184Z,65.95
2022-11-29T18:21:45.280Z,58.63
2022-11-29T18:24:12.087Z,52.22
2022-11-29T18:26:39.724Z,73.03
2022-11-29T18:29:07.549Z,45.78
2022-11-29T18:31:37.234Z,36.00
2022-11-29T18:34:07.186Z,46.00
2022-11-29T18:36:36.887Z,54.00
2022-11-29T18:39:10.085Z,24.23
2022-11-29T18:41:37.820Z,28.90
2022-11-29T18:44:10.441Z,26.77
2022-11-29T18:46:38.882Z,32.70
2022-11-29T18:49:09.684Z,28.20
2022-11-29T18:51:38.192Z,19.53
2022-11-29T18:54:06.507Z,20.23
2022-11-29T18:56:35.168Z,26.05
2022-11-29T18:59:10.064Z,24.05
2022-11-29T19:01:41.204Z,20.63
2022-11-29T19:04:13.710Z,20.27
2022-11-29T19:06:41.483Z,19.20
2022-11-29T19:09:13.288Z,21.88
2022-11-29T19:11:40.764Z,26.20
2022-11-29T19:14:13.427Z,21.70
2022-11-29T19:16:45.518Z,22.07
2022-11-29T19:19:12.665Z,22.65
2022-11-29T19:21:40.067Z,30.15
2022-11-29T19:24:13.551Z,23.63
2022-11-29T19:26:41.123Z,19.13
2022-11-29T19:29:07.891Z,19.03
2022-11-29T19:31:34.593Z,18.83
2022-11-29T19:34:01.842Z,19.02
2022-11-29T19:36:30.666Z,19.38
2022-11-29T19:39:01.659Z,19.98
2022-11-29T19:41:31.050Z,17.80
2022-11-29T19:43:59.352Z,19.17
2022-11-29T19:46:29.722Z,18.63
2022-11-29T19:48:58.317Z,19.73
2022-11-29T19:51:26.707Z,25.23
2022-11-29T19:53:55.212Z,19.10
2022-11-29T19:56:23.111Z,21.42
2022-11-29T19:58:51.257Z,21.42
2022-11-29T20:01:22.464Z,23.45
2022-11-29T20:03:49.941Z,24.05
2022-11-29T20:06:17.855Z,24.07
2022-11-29T20:08:45.321Z,19.17
2022-11-29T20:11:21.136Z,20.40
2022-11-29T20:13:53.667Z,19.23
2022-11-29T20:16:22.472Z,19.58
2022-11-29T20:18:51.391Z,19.03
2022-11-29T20:21:20.981Z,20.45
2022-11-29T20:23:48.775Z,19.13
2022-11-29T20:26:20.489Z,20.27
2022-11-29T20:28:47.906Z,19.50
2022-11-29T20:31:21.309Z,21.50
2022-11-29T20:33:49.478Z,21.75
2022-11-29T20:36:44.033Z,19.55
2022-11-29T20:39:49.795Z,18.13
2022-11-29T20:42:28.911Z,19.25
2022-11-29T20:44:58.918Z,16.73
2022-11-29T20:47:40.291Z,19.08
2022-11-29T20:50:13.402Z,18.60
2022-11-29T20:52:54.938Z,17.17
2022-11-29T20:55:21.804Z,17.63
2022-11-29T20:57:49.834Z,18.27
2022-11-29T21:00:17.133Z,18.92
2022-11-29T21:02:44.121Z,19.58
2022-11-29T21:05:11.281Z,19.25
2022-11-29T21:07:38.183Z,17.63
2022-11-29T21:10:05.951Z,23.30
2022-11-29T21:12:33.387Z,19.80
2022-11-29T21:15:00.591Z,20.10
2022-11-29T21:17:33.427Z,20.52
2022-11-29T21:20:01.210Z,21.05
2022-11-29T21:22:38.761Z,18.47
2022-11-29T21:25:14.076Z,22.20
2022-11-29T21:27:45.247Z,18.25
2022-11-29T21:30:22.283Z,20.10
2022-11-29T21:32:51.179Z,20.00
2022-11-29T21:35:18.605Z,20.17
2022-11-29T21:37:47.851Z,24.48
2022-11-29T21:40:15.379Z,25.05
2022-11-29T21:42:42.317Z,21.33
2022-11-29T21:45:15.231Z,21.83
2022-11-29T21:47:43.873Z,22.53
2022-11-29T21:50:12.496Z,20.90
2022-11-29T21:52:39.692Z,20.30
2022-11-29T21:55:06.816Z,20.88
2022-11-29T21:57:33.576Z,20.40
2022-11-29T22:00:00.294Z,19.70
2022-11-29T22:02:27.126Z,19.92
2022-11-29T22:04:53.934Z,20.92
2022-11-29T22:07:20.887Z,22.50
2022-11-29T22:09:47.729Z,22.02
2022-11-29T22:12:33.273Z,22.50
2022-11-29T22:15:01.198Z,24.30
2022-11-29T22:17:27.965Z,21.35
2022-11-29T22:19:54.768Z,21.75
2022-11-29T22:22:21.691Z,20.58
2022-11-29T22:24:48.721Z,25.03
2022-11-29T22:27:18.131Z,22.55
2022-11-29T22:29:45.145Z,22.80
2022-11-29T22:32:11.920Z,24.50
2022-11-29T22:34:38.766Z,23.38
2022-11-29T22:37:06.047Z,21.43
2022-11-29T22:39:32.930Z,22.95
2022-11-29T22:41:59.741Z,24.80
2022-11-29T22:44:26.465Z,25.50
2022-11-29T22:46:53.534Z,23.60
2022-11-29T22:49:20.451Z,25.83
2022-11-29T22:51:47.323Z,24.63
2022-11-29T22:54:18.037Z,23.52
2022-11-29T22:56:45.703Z,22.58
2022-11-29T22:59:12.777Z,23.73
2022-11-29T23:01:41.351Z,24.53
2022-11-29T23:04:10.077Z,25.63
2022-11-29T23:06:40.995Z,19.77
2022-11-29T23:09:18.894Z,25.70
2022-11-29T23:11:50.777Z,25.95
2022-11-29T23:14:18.836Z,20.93
2022-11-29T23:16:46.038Z,21.50
2022-11-29T23:19:16.187Z,21.38
2022-11-29T23:21:45.517Z,22.95
2022-11-29T23:24:13.686Z,23.40
2022-11-29T23:26:43.932Z,20.97
2022-11-29T23:29:14.235Z,21.27
2022-11-29T23:31:41.389Z,18.45
2022-11-29T23:34:08.878Z,20.65
2022-11-29T23:36:35.748Z,22.25
2022-11-29T23:39:05.138Z,21.17
2022-11-29T23:41:32.126Z,22.25
2022-11-29T23:43:59.785Z,22.13
2022-11-29T23:46:26.729Z,18.85
2022-11-29T23:48:53.508Z,21.73
2022-11-29T23:51:20.644Z,25.70
2022-11-29T23:53:54.029Z,24.00
2022-11-29T23:56:21.672Z,23.35
2022-11-29T23:58:48.922Z,23.40
